logo
App data

Soda Dungeon

Pop the top on some legendary action with Soda Dungeon, the fresh and fizzy hit mobile RPG adventure, now available on your desktop! Manage your team as you raid the local dungeons, upgrade your tavern, and attract new party members. Gold, legendary items, and more await you.
Store | Hub | SteamDB | Site
Developer: AN Productions, Poxpower Publisher: Armor Games Studios
Genre: Casual, Free to Play, RPG
Languages: English, French, German, Portuguese - Brazil, Russian
Tags: Free to Play (387), RPG (237), Pixel Graphics (174), Casual (171), 2D (132), Clicker (127), Turn-Based (111), Singleplayer (99), Dungeon Crawler (97), Adventure (82), Fantasy (65), Strategy (59), Indie (53), Action (50), Comedy (39), Turn-Based Combat (31), Great Soundtrack (30), Multiplayer (20), Point & Click (18), MMORPG (8)
Category: Single-player, Steam Achievements, Steam Trading Cards, In-App Purchases, Steam Cloud
Release date: Feb 6, 2017
Free
Old userscore: 94% Owners: 500,000 .. 1,000,000
Followers: 13,269
Peak concurrent players yesterday: 417
YouTube stats: 131,415 views and 1,436 comments for top 50 videos uploaded last week, 38 new videos uploaded yesterday.
Playtime total: 24:14 (average) 05:33 (median)

Steam Spy is still in beta, so expect major bugs.

Owners data:

Access restricted.

This feature is only available to users with special access rights. Sorry.

If you want to proceed, you need to register or log in first and then back Steam Spy on Patreon. Look for Indie or Pro pledge.

Don't forget to use the same email as on Steam Spy!

Audience in 2 weeks:

Access restricted.

This feature is only available to users with special access rights. Sorry.

If you want to proceed, you need to register or log in first and then back Steam Spy on Patreon. Look for Indie or Pro pledge.

Don't forget to use the same email as on Steam Spy!

Peak daily concurrent players:

CCU data courtesy of SteamDB. Used with permission.

Hourly concurrent players:

Daily Twitch stats:

Hourly Twitch stats:

Followers over time

Access restricted.

This feature is only available to users with special access rights. Sorry.

If you want to proceed, you need to register or log in first and then back Steam Spy on Patreon. Look for Indie or Pro pledge.

Don't forget to use the same email as on Steam Spy!

Views for top 50 videos on YouTube for this game:

Games similar to this one:

# Game Release date
Price
Score rank
(Userscore / Metascore)
Owners
Players
Playtime (Median)
1 Total War: WARHAMMER May 24, 2016 $59.99N/A (N/A/86%)2,000,000 .. 5,000,0001.16%00:31 (00:10)
2 80 Days Sep 28, 2015 $12.99N/A (N/A/84%)100,000 .. 200,0000%00:00 (00:00)
3 Savage Resurrection Aug 18, 2016 N/AN/A (N/A)50,000 .. 100,0000%00:00 (00:00)
4 Dead Island: Riptide Definitive Edition May 31, 2016 $19.99N/A (N/A)200,000 .. 500,0000%00:00 (00:00)
5 Kingdom: Classic Oct 21, 2015 $4.99N/A (N/A/74%)500,000 .. 1,000,0000%00:00 (00:00)
6 The Descendant Mar 24, 2016 $14.99N/A (N/A/59%)500,000 .. 1,000,0001.41%03:17 (02:16)
7 Halcyon 6: Starbase Commander Sep 8, 2016 $14.99N/A (N/A/71%)100,000 .. 200,0000%00:00 (00:00)
8 The Silent Age May 29, 2015 $0.99N/A (N/A)200,000 .. 500,0000%00:00 (00:00)
9 Tap Heroes Jun 5, 2015 $2.99N/A (N/A)200,000 .. 500,0000%00:00 (00:00)
10 Space Run Galaxy Jun 17, 2016 $19.99N/A (N/A/75%)100,000 .. 200,0000%00:00 (00:00)
11 Portal Knights May 18, 2017 $19.99N/A (N/A/72%)500,000 .. 1,000,0000%00:00 (00:00)
12 Curious Expedition Sep 2, 2016 $14.99N/A (N/A)200,000 .. 500,0000%00:00 (00:00)
13 Anno 2205 Nov 3, 2015 $39.99N/A (N/A/72%)500,000 .. 1,000,0000%00:00 (00:00)
14 ROMANCE OF THE THREE KINGDOMS XIII Jan 27, 2016 $59.99N/A (N/A)200,000 .. 500,0000%00:00 (00:00)
15 Putrefaction Aug 7, 2015 $0.99N/A (N/A)50,000 .. 100,0000%00:00 (00:00)
16 Battlefleet Gothic: Armada Apr 21, 2016 $19.99N/A (N/A/77%)200,000 .. 500,0000%00:00 (00:00)
17 The Surge May 15, 2017 $19.99N/A (N/A/72%)500,000 .. 1,000,0000%00:00 (00:00)
18 Castlevania: Lords of Shadow 2 Feb 25, 2014 $39.99N/A (N/A/58%)200,000 .. 500,0000%00:00 (00:00)
19 Wargame: Red Dragon Apr 17, 2014 $29.99N/A (N/A/78%)500,000 .. 1,000,0000%00:00 (00:00)
20 Goodbye Deponia Oct 17, 2013 $1.99N/A (N/A/80%)200,000 .. 500,0000%00:00 (00:00)
21 INFRA Jan 15, 2016 $29.99N/A (N/A)20,000 .. 50,0000%00:00 (00:00)
22 Middle-earth: Shadow of Mordor Sep 30, 2014 $19.99N/A (N/A/84%)2,000,000 .. 5,000,0000.53%00:19 (00:06)
23 Castlevania: Lords of Shadow – Ultimate Edition Aug 27, 2013 $29.99N/A (N/A)200,000 .. 500,0000%00:00 (00:00)
24 Memoria Aug 29, 2013 $19.99N/A (N/A/79%)200,000 .. 500,0000%00:00 (00:00)
25 Mad Max Sep 1, 2015 $19.99N/A (N/A/73%)2,000,000 .. 5,000,0000%00:00 (00:00)
26 Men of War: Assault Squad 2 May 15, 2014 $29.99N/A (N/A/68%)1,000,000 .. 2,000,0004.44%03:50 (02:33)
27 Warhammer: End Times - Vermintide Oct 23, 2015 $29.99N/A (N/A/79%)1,000,000 .. 2,000,0000%00:00 (00:00)
28 Tropico 5 May 23, 2014 $19.99N/A (N/A/75%)1,000,000 .. 2,000,0000%00:00 (00:00)
29 Blood Bowl 2 Sep 22, 2015 $19.99N/A (N/A/76%)500,000 .. 1,000,0000%00:00 (00:00)
30 Plague Inc: Evolved Feb 18, 2016 $14.99N/A (N/A)2,000,000 .. 5,000,0000.68%00:29 (00:09)
31 Dreamfall Chapters Jul 21, 2017 $24.99N/A (N/A/71%)200,000 .. 500,0000%00:00 (00:00)
32 Unholy Heights Aug 16, 2013 $3.99N/A (N/A)100,000 .. 200,0000%00:00 (00:00)
33 Bionic Dues Oct 8, 2013 $9.99N/A (N/A/71%)200,000 .. 500,0000%00:00 (00:00)
34 The Wolf Among Us Oct 11, 2013 $14.99N/A (N/A/85%)1,000,000 .. 2,000,0000%00:00 (00:00)
35 Batman: Arkham Asylum Game of the Year Edition Mar 26, 2010 $19.99N/A (N/A/91%)2,000,000 .. 5,000,0000%00:00 (00:00)
36 Warhammer 40,000: Dawn of War II Chaos Rising Mar 10, 2010 $19.99N/A (N/A/85%)1,000,000 .. 2,000,0000%00:00 (00:00)
37 RIFT Oct 24, 2013 FreeN/A (N/A/84%)2,000,000 .. 5,000,0000%00:00 (00:00)
38 Resident Evil 5 Sep 15, 2009 $19.99N/A (N/A/86%)1,000,000 .. 2,000,0000%00:00 (00:00)
39 Aliens vs. Predator Feb 16, 2010 $14.99N/A (N/A/68%)1,000,000 .. 2,000,0000%00:00 (00:00)
40 Worms Reloaded Aug 26, 2010 $19.99N/A (N/A/79%)500,000 .. 1,000,0000%00:00 (00:00)
41 Assassin's Creed: Director's Cut Edition Apr 9, 2008 $19.99N/A (N/A/79%)500,000 .. 1,000,0003.13%01:43 (00:34)
42 Command & Conquer 3: Tiberium Wars Nov 13, 2009 $14.99N/A (N/A/85%)500,000 .. 1,000,0004.35%00:01 (00:00)
43 Tom Clancy's Rainbow Six Vegas 2 Apr 16, 2008 $9.99N/A (N/A/78%)500,000 .. 1,000,0000%00:00 (00:00)
44 Command & Conquer 3: Kane's Wrath Nov 13, 2009 $14.99N/A (N/A/77%)200,000 .. 500,0000%00:00 (00:00)
45 Heroes of Might & Magic V: Tribes of the East Oct 16, 2007 $9.99N/A (N/A/70%)200,000 .. 500,0000%00:00 (00:00)
46 STAR WARS - The Force Unleashed Ultimate Sith Edition Dec 15, 2009 $19.99N/A (N/A/65%)1,000,000 .. 2,000,0000%00:00 (00:00)
47 Warhammer 40,000: Dawn of War II Feb 18, 2009 $19.99N/A (N/A/85%)2,000,000 .. 5,000,0000%00:00 (00:00)
48 Assassin's Creed 2 Deluxe Edition Mar 9, 2010 $19.99N/A (N/A/86%)1,000,000 .. 2,000,0004.62%00:56 (00:39)
49 Crysis Warhead Sep 17, 2008 $19.99N/A (N/A/84%)1,000,000 .. 2,000,0000%00:00 (00:00)
50 Sniper: Ghost Warrior Jun 24, 2010 $7.99N/A (N/A/55%)500,000 .. 1,000,0000%00:00 (00:00)
51 Command & Conquer: Red Alert 3 Jan 8, 2009 $19.99N/A (N/A/82%)500,000 .. 1,000,0002.63%02:20 (00:46)
52 Heaven Island - VR MMO Dec 1, 2015 $0.99N/A (N/A)1,000,000 .. 2,000,0000%00:00 (00:00)
53 Darksiders II Deathinitive Edition Nov 5, 2015 $29.99N/A (N/A)1,000,000 .. 2,000,0001.98%01:04 (00:39)
54 VERGE:Lost chapter Oct 1, 2015 $0.99N/A (N/A)100,000 .. 200,0000%00:00 (00:00)
55 Azure Striker Gunvolt Aug 28, 2015 $14.99N/A (N/A)50,000 .. 100,0000%00:00 (00:00)
56 BioShock 2 Remastered Sep 15, 2016 $19.99N/A (N/A)500,000 .. 1,000,0000.61%03:21 (01:07)
57 DESYNC Feb 28, 2017 $14.99N/A (N/A)20,000 .. 50,0000%00:00 (00:00)
58 Firewatch Feb 9, 2016 $19.99N/A (N/A/81%)1,000,000 .. 2,000,0006.38%01:28 (01:15)
59 Rise of the Tomb Raider Feb 9, 2016 $29.99N/A (N/A/86%)2,000,000 .. 5,000,0003.56%06:38 (06:46)
60 NECROPOLIS: BRUTAL EDITION Jul 2016 $29.99N/A (N/A)200,000 .. 500,0000%00:00 (00:00)
61 Endless Space 2 - Digital Deluxe Edition May 18, 2017 $39.99N/A (N/A)1,000,000 .. 2,000,00011.43%05:22 (04:25)
62 Planetary Annihilation: TITANS Aug 18, 2015 $19.99N/A (N/A)500,000 .. 1,000,0001.92%02:47 (00:55)
63 Hearts of Iron IV Jun 6, 2016 $39.99N/A (N/A/83%)2,000,000 .. 5,000,00016.04%19:15 (16:51)
64 Crossout Jul 26, 2017 FreeN/A (N/A)2,000,000 .. 5,000,0002.79%53:49 (105:21)
65 Dead Effect 2 May 6, 2016 $2.39N/A (N/A/53%)50,000 .. 100,0000%00:00 (00:00)
66 SMITE Sep 8, 2015 FreeN/A (N/A/83%)10,000,000 .. 20,000,0003.9%28:08 (13:15)
67 Ben and Ed Dec 8, 2015 $9.99N/A (N/A)100,000 .. 200,0000%00:00 (00:00)
68 Day of the Tentacle Remastered Mar 21, 2016 $14.99N/A (N/A/86%)200,000 .. 500,0000%00:00 (00:00)
69 Crimsonland Jun 11, 2014 $13.99N/A (N/A/68%)100,000 .. 200,0007.69%00:04 (00:01)
70 Brigador: Up-Armored Edition Jun 2, 2016 $19.99N/A (N/A/70%)200,000 .. 500,0000%00:00 (00:00)
71 Blockstorm May 21, 2015 $4.99N/A (N/A)500,000 .. 1,000,0000%00:00 (00:00)
72 Depth Nov 3, 2014 $19.99N/A (N/A/65%)1,000,000 .. 2,000,0001.25%00:01 (00:00)
73 One Finger Death Punch Mar 3, 2014 $4.99N/A (N/A)500,000 .. 1,000,0000%00:00 (00:00)
74 Death Road to Canada Jul 21, 2016 $14.99N/A (N/A)200,000 .. 500,0000%00:00 (00:00)
75 Age of Mythology: Extended Edition May 8, 2014 $29.99N/A (N/A/66%)1,000,000 .. 2,000,00010.87%00:42 (01:05)
76 Abyss Odyssey Jul 15, 2014 $14.99N/A (N/A/69%)200,000 .. 500,0000%00:00 (00:00)
77 Panzer Corps Gold Jul 10, 2011 $29.99N/A (N/A/80%)100,000 .. 200,0000%00:00 (00:00)
78 Max: The Curse of Brotherhood May 21, 2014 $14.99N/A (N/A)50,000 .. 100,0000%00:00 (00:00)
79 XCOM 2 Feb 4, 2016 $59.99N/A (N/A/88%)2,000,000 .. 5,000,0003.06%09:20 (09:20)
80 Enemy Front Jun 10, 2014 $19.99N/A (N/A/52%)200,000 .. 500,0000%00:00 (00:00)
81 RUNNING WITH RIFLES Apr 2, 2015 $14.99N/A (N/A/78%)500,000 .. 1,000,0000%00:00 (00:00)
82 Killer is Dead - Nightmare Edition May 23, 2014 $19.99N/A (N/A)1,000,000 .. 2,000,0000%00:00 (00:00)
83 Offworld Trading Company Apr 28, 2016 $29.99N/A (N/A/78%)500,000 .. 1,000,0000%00:00 (00:00)
84 Dungeons 2 Apr 24, 2015 $19.99N/A (N/A/70%)1,000,000 .. 2,000,0000%00:00 (00:00)
85 Evolve Stage 2 Feb 10, 2015 N/AN/A (N/A/77%)5,000,000 .. 10,000,0000%00:00 (00:00)
86 Broken Sword: Director's Cut Sep 2, 2010 $5.99N/A (N/A)100,000 .. 200,0000%00:00 (00:00)
87 Syberia II May 19, 2011 $12.99N/A (N/A/80%)500,000 .. 1,000,0000%00:00 (00:00)
88 Blood Bowl - Legendary Edition Oct 28, 2010 $9.99N/A (N/A/73%)200,000 .. 500,0000%00:00 (00:00)
89 Stronghold 3 Gold May 25, 2012 $29.99N/A (N/A)500,000 .. 1,000,0000%00:00 (00:00)
90 Supreme Commander 2 Mar 1, 2010 $12.99N/A (N/A/77%)1,000,000 .. 2,000,0003.7%03:26 (01:27)
91 Assassin’s Creed Brotherhood Mar 22, 2011 $19.99N/A (N/A/88%)1,000,000 .. 2,000,0000%00:00 (00:00)
92 Stronghold HD Oct 19, 2001 $5.99N/A (N/A/81%)1,000,000 .. 2,000,0000%00:00 (00:00)
93 Might & Magic: Heroes VI Oct 13, 2011 $19.99N/A (N/A/77%)500,000 .. 1,000,0000%00:00 (00:00)
94 Stronghold 2: Steam Edition $14.99N/A (N/A)0 .. 20,0006.67%04:50 (01:36)
95 Anno 2070 Nov 17, 2011 $19.99N/A (N/A/83%)500,000 .. 1,000,0000%00:00 (00:00)
96 Stronghold Crusader HD Jul 31, 2002 $9.99N/A (N/A/78%)1,000,000 .. 2,000,0000%00:00 (00:00)
97 Mafia II (Classic) Mar 22, 2011 N/AN/A (N/A/77%)2,000,000 .. 5,000,0000%00:00 (00:00)
98 Stronghold Legends: Steam Edition Oct 27, 2009 $14.99N/A (N/A)200,000 .. 500,0000%00:00 (00:00)
99 Darksiders Sep 23, 2010 N/AN/A (N/A/83%)500,000 .. 1,000,0000%00:00 (00:00)
100 Call of Duty: Black Ops Nov 9, 2010 $39.99N/A (N/A/81%)2,000,000 .. 5,000,0000.96%00:12 (00:04)
101 Homefront Mar 14, 2011 $19.99N/A (N/A/70%)2,000,000 .. 5,000,0000.61%00:38 (00:12)
102 Devil May Cry 4 Jul 8, 2008 $19.99N/A (N/A/78%)200,000 .. 500,0000%00:00 (00:00)
103 Prison Run and Gun Mar 16, 2016 $4.99N/A (N/A)20,000 .. 50,0000%00:00 (00:00)
104 River City Ransom: Underground Feb 27, 2017 $19.99N/A (N/A)50,000 .. 100,0000%00:00 (00:00)
105 Rock 'N' Roll Defense Aug 10, 2016 $0.99N/A (N/A)100,000 .. 200,0003.57%05:06 (01:42)
106 Particle Fleet: Emergence Sep 29, 2016 $14.99N/A (N/A)50,000 .. 100,0000%00:00 (00:00)
107 Jelly Killer Mar 24, 2016 $3.99N/A (N/A)20,000 .. 50,00050%04:55 (02:27)
108 Project Pulsation Dec 15, 2015 $4.99N/A (N/A)50,000 .. 100,0000%00:00 (00:00)
109 EARTH DEFENSE FORCE 4.1 The Shadow of New Despair Jul 18, 2016 $19.99N/A (N/A/79%)500,000 .. 1,000,0000%00:00 (00:00)
110 Grow Up Aug 16, 2016 $9.99N/A (N/A/71%)100,000 .. 200,0000%00:00 (00:00)
111 Starward Rogue Jan 22, 2016 $11.99N/A (N/A)50,000 .. 100,0000%00:00 (00:00)
112 8-Bit Armies Apr 22, 2016 $14.99N/A (N/A/69%)100,000 .. 200,0000%00:00 (00:00)
113 Forts Apr 19, 2017 $14.99N/A (N/A/74%)200,000 .. 500,0006.38%00:14 (00:10)
114 The Walking Dead: Michonne - A Telltale Miniseries Feb 23, 2016 $14.99N/A (N/A)200,000 .. 500,0000%00:00 (00:00)
115 CLASH Nov 15, 2016 FreeN/A (N/A)100,000 .. 200,0000%00:00 (00:00)
116 Masked Shooters 2 Jan 14, 2016 $0.99N/A (N/A)200,000 .. 500,0000%00:00 (00:00)
117 RWBY: Grimm Eclipse Jul 5, 2016 $19.99N/A (N/A)200,000 .. 500,0000%00:00 (00:00)
118 Lost Castle / 失落城堡 Aug 31, 2016 $9.99N/A (N/A)1,000,000 .. 2,000,0002.94%01:03 (00:24)
119 Swiftly Jan 26, 2016 $0.99N/A (N/A)50,000 .. 100,0000%00:00 (00:00)
120 Solarix Apr 30, 2015 $19.99N/A (N/A/47%)100,000 .. 200,0000%00:00 (00:00)
121 Heroes of Might & Magic III - HD Edition Jan 29, 2015 $14.99N/A (N/A/65%)500,000 .. 1,000,0000%00:00 (00:00)
122 Rise of Nations: Extended Edition Jun 12, 2014 $19.99N/A (N/A/89%)1,000,000 .. 2,000,0000%00:00 (00:00)
123 Close Combat - Gateway to Caen Jun 6, 2014 $39.99N/A (N/A)20,000 .. 50,0000%00:00 (00:00)
124 Mini Metro Nov 6, 2015 $9.99N/A (N/A/77%)500,000 .. 1,000,0003.03%00:14 (00:04)
125 A Story About My Uncle May 28, 2014 $14.99N/A (N/A/73%)5,000,000 .. 10,000,0001.14%02:28 (02:16)
126 Sid Meier’s Civilization VI Oct 20, 2016 $59.99N/A (N/A/88%)2,000,000 .. 5,000,0007.45%09:51 (09:07)
127 Homeworld: Deserts of Kharak Jan 20, 2016 $49.99N/A (N/A/79%)200,000 .. 500,0000%00:00 (00:00)
128 Endless Legend - Emperor Edition Sep 18, 2014 $29.99N/A (N/A/82%)1,000,000 .. 2,000,0000%00:00 (00:00)
129 Splatter - Zombiecalypse Now Jun 4, 2014 $5.99N/A (N/A)200,000 .. 500,0000%00:00 (00:00)
130 LARA CROFT AND THE TEMPLE OF OSIRIS Dec 8, 2014 $19.99N/A (N/A/73%)200,000 .. 500,0000%00:00 (00:00)
131 Sid Meier's Starships Mar 12, 2015 $14.99N/A (N/A/64%)200,000 .. 500,0000%00:00 (00:00)
132 Call of Duty: Infinite Warfare Nov 3, 2016 $59.99N/A (N/A/73%)500,000 .. 1,000,0000%00:00 (00:00)
133 SuperPower 2 Steam Edition Oct 11, 2004 $9.99N/A (N/A)100,000 .. 200,0000%00:00 (00:00)
134 Deponia: The Complete Journey Jul 8, 2014 $29.99N/A (N/A)1,000,000 .. 2,000,0000%00:00 (00:00)
135 Enigmatis: The Ghosts of Maple Creek Sep 1, 2011 $9.99N/A (N/A)100,000 .. 200,0000%00:00 (00:00)
136 Renowned Explorers: International Society Sep 2, 2015 $19.99N/A (N/A)200,000 .. 500,0000%00:00 (00:00)
137 Tomb Raider Mar 4, 2013 $14.99N/A (N/A/86%)5,000,000 .. 10,000,0000.99%07:38 (08:08)
138 Alan Wake Feb 16, 2012 $14.99N/A (N/A/83%)2,000,000 .. 5,000,0000%00:00 (00:00)
139 Max Payne 3 May 31, 2012 $19.99N/A (N/A/87%)1,000,000 .. 2,000,0003.19%03:28 (03:07)
140 Crysis 2 - Maximum Edition Mar 22, 2011 $29.99N/A (N/A)1,000,000 .. 2,000,0000.91%03:42 (01:14)
141 Wargame: European Escalation Feb 22, 2012 $9.99N/A (N/A/81%)500,000 .. 1,000,0000%00:00 (00:00)
142 Prototype 2 Jul 24, 2012 $39.99N/A (N/A/76%)500,000 .. 1,000,0000%00:00 (00:00)
143 Might & Magic: Clash of Heroes Sep 22, 2011 $9.99N/A (N/A/76%)200,000 .. 500,0000%00:00 (00:00)
144 Worms Revolution Oct 10, 2012 $14.99N/A (N/A/73%)1,000,000 .. 2,000,0001.43%00:52 (00:17)
145 Men of War: Assault Squad Feb 24, 2011 $9.99N/A (N/A/77%)100,000 .. 200,0000%00:00 (00:00)
146 Batman: Arkham City - Game of the Year Edition Sep 7, 2012 $19.99N/A (N/A/91%)2,000,000 .. 5,000,0000%00:00 (00:00)
147 The Bureau: XCOM Declassified Aug 19, 2013 $19.99N/A (N/A/66%)2,000,000 .. 5,000,0000.64%00:06 (00:02)
148 Assassin's Creed Revelations Nov 29, 2011 $19.99N/A (N/A/80%)500,000 .. 1,000,0004.44%02:56 (01:57)
149 Sid Meier's Civilization: Beyond Earth Oct 23, 2014 $39.99N/A (N/A/81%)1,000,000 .. 2,000,0002.38%02:15 (00:45)
150 Galactic Civilizations II: Ultimate Edition Dec 2, 2011 $19.99N/A (N/A/92%)200,000 .. 500,0000%00:00 (00:00)
151 Darkest Hour: A Hearts of Iron Game Apr 8, 2011 $9.99N/A (N/A/81%)200,000 .. 500,0000%00:00 (00:00)
152 Call of Duty: Black Ops II Nov 12, 2012 $59.99N/A (N/A/74%)2,000,000 .. 5,000,0001.57%00:01 (00:00)
153 Age of Empires III: Complete Collection Jan 5, 2012 $39.99N/A (N/A/81%)2,000,000 .. 5,000,0002.38%04:19 (02:52)
154 Super Mega Neo Pug May 11, 2016 $0.99N/A (N/A)200,000 .. 500,0000%00:00 (00:00)
155 Halo Wars: Definitive Edition Apr 20, 2017 $19.99N/A (N/A)200,000 .. 500,0000%00:00 (00:00)
156 Event[0] Sep 14, 2016 $19.99N/A (N/A/75%)100,000 .. 200,0000%00:00 (00:00)
157 Bayonetta Apr 11, 2017 $19.99N/A (N/A/90%)500,000 .. 1,000,0000%00:00 (00:00)
158 Killbot Jul 10, 2016 $0.99N/A (N/A)50,000 .. 100,0000%00:00 (00:00)
159 Darksiders Warmastered Edition Nov 29, 2016 $19.99N/A (N/A)1,000,000 .. 2,000,0000%00:00 (00:00)
160 This Is the Police Aug 2, 2016 $14.99N/A (N/A)500,000 .. 1,000,0000%00:00 (00:00)
161 Farnham Fables Jun 20, 2016 $0.99N/A (N/A)100,000 .. 200,0000%00:00 (00:00)
162 Might and Magic: Heroes VII – Trial by Fire Aug 4, 2016 $29.99N/A (N/A)20,000 .. 50,0000%00:00 (00:00)
163 Hiiro Jul 12, 2016 $2.99N/A (N/A)100,000 .. 200,0000%00:00 (00:00)
164 Zombie Training Simulator Apr 15, 2016 $19.99N/A (N/A)100,000 .. 200,0000%00:00 (00:00)
165 Crime Secrets: Crimson Lily Jul 14, 2016 $9.99N/A (N/A)20,000 .. 50,0000%00:00 (00:00)
166 ! That Bastard Is Trying To Steal Our Gold ! Mar 1, 2016 $2.99N/A (N/A)20,000 .. 50,0000%00:00 (00:00)
167 Z.I.O.N. May 7, 2016 $4.99N/A (N/A)100,000 .. 200,0003.7%03:39 (01:13)
168 Madness Cubed May 12, 2016 $1.99N/A (N/A)100,000 .. 200,0000%00:00 (00:00)
169 Impact Winter May 22, 2017 $19.99N/A (N/A/63%)0 .. 20,0000%00:00 (00:00)
170 Cyber City 2157: The Visual Novel May 4, 2016 $4.99N/A (N/A)200,000 .. 500,0000%00:00 (00:00)
171 LEGO Pirates of the Caribbean: The Video Game May 24, 2011 $19.99N/A (N/A)100,000 .. 200,00011.11%01:18 (00:26)
172 SteamWorld Heist Jun 7, 2016 $14.99N/A (N/A/81%)500,000 .. 1,000,0000%00:00 (00:00)
173 Way of the Samurai 4 Jul 23, 2015 $24.99N/A (N/A/72%)100,000 .. 200,0000%00:00 (00:00)
174 Gurumin: A Monstrous Adventure Mar 30, 2015 $9.99N/A (N/A)50,000 .. 100,0000%00:00 (00:00)
175 Starion Tactics Sep 5, 2014 $9.99N/A (N/A)50,000 .. 100,0000%00:00 (00:00)
176 Master of Orion Feb 26, 2016 $24.99N/A (N/A/74%)500,000 .. 1,000,0000%00:00 (00:00)
177 Blitzkrieg Anthology Mar 28, 2003 $4.99N/A (N/A)200,000 .. 500,0000%00:00 (00:00)
178 GET EVEN Jun 20, 2017 $29.99N/A (N/A/75%)20,000 .. 50,0000%00:00 (00:00)
179 Blitzkrieg 2 Anthology Sep 23, 2005 $4.99N/A (N/A/75%)200,000 .. 500,0000%00:00 (00:00)
180 Saints Row: Gat out of Hell Jan 20, 2015 $14.99N/A (N/A/66%)500,000 .. 1,000,0000%00:00 (00:00)
181 Rampage Knights Sep 4, 2015 $11.99N/A (N/A/80%)200,000 .. 500,0000%00:00 (00:00)
182 Ultimate General: Gettysburg Oct 16, 2014 $14.99N/A (N/A/84%)100,000 .. 200,0000%00:00 (00:00)
183 Grim Fandango Remastered Jan 26, 2015 $14.99N/A (N/A/84%)500,000 .. 1,000,0000%00:00 (00:00)
184 Obduction Aug 24, 2016 $29.99N/A (N/A/76%)200,000 .. 500,0000%00:00 (00:00)
185 Chaos Reborn Oct 26, 2015 $9.99N/A (N/A/85%)50,000 .. 100,0000%00:00 (00:00)
186 Grand Ages: Medieval Sep 25, 2015 $19.99N/A (N/A/63%)100,000 .. 200,0000%00:00 (00:00)
187 Trine 3: The Artifacts of Power Aug 20, 2015 $5.49N/A (N/A)500,000 .. 1,000,0000%00:00 (00:00)
188 Resident Evil 6 Mar 22, 2013 $29.99N/A (N/A/69%)1,000,000 .. 2,000,0003.23%05:33 (05:02)
189 Sonic Adventure 2 Nov 19, 2012 $9.99N/A (N/A)500,000 .. 1,000,0000%00:00 (00:00)
190 Age of Empires II (2013) Apr 9, 2013 $19.99N/A (N/A/68%)5,000,000 .. 10,000,0002.07%06:51 (06:09)
191 Minimum Sep 10, 2014 N/AN/A (N/A/69%)200,000 .. 500,0000%00:00 (00:00)
192 Infested Planet Mar 6, 2014 $14.99N/A (N/A/75%)200,000 .. 500,0000%00:00 (00:00)
193 Deponia Aug 6, 2012 $9.99N/A (N/A/74%)1,000,000 .. 2,000,0000%00:00 (00:00)
194 Sins of a Solar Empire: Rebellion Jun 12, 2012 $13.19N/A (N/A/82%)2,000,000 .. 5,000,0000.65%05:12 (02:27)
195 Total War: ROME II - Emperor Edition Sep 2, 2013 $59.99N/A (N/A/76%)2,000,000 .. 5,000,0005.08%00:50 (00:45)
196 Port Royale 3 May 4, 2012 $14.99N/A (N/A)100,000 .. 200,0000%00:00 (00:00)
197 PlanetSide 2 Nov 20, 2012 FreeN/A (N/A/84%)5,000,000 .. 10,000,0002.29%12:13 (19:39)
198 Endless Space - Collection Jul 4, 2012 $9.99N/A (N/A/77%)1,000,000 .. 2,000,0000%00:00 (00:00)
199 Mercenary Kings: Reloaded Edition Mar 25, 2014 $19.99N/A (N/A/76%)200,000 .. 500,0000%00:00 (00:00)
200 Assassin’s Creed III Nov 20, 2012 N/AN/A (N/A/80%)1,000,000 .. 2,000,0002.27%02:40 (00:53)
201 DmC: Devil May Cry Jan 24, 2013 $29.99N/A (N/A/85%)1,000,000 .. 2,000,0000%00:00 (00:00)
202 Batman: Arkham Origins Oct 24, 2013 $19.99N/A (N/A/74%)2,000,000 .. 5,000,0000.97%00:21 (00:07)
203 Chaos on Deponia Nov 6, 2012 $1.99N/A (N/A/78%)200,000 .. 500,0000%00:00 (00:00)
204 Resident Evil: Operation Raccoon City May 18, 2012 $29.99N/A (N/A/48%)200,000 .. 500,0000%00:00 (00:00)
205 Operation: New Earth Dec 14, 2016 N/AN/A (N/A)100,000 .. 200,0000%00:00 (00:00)
206 Warhammer 40,000: Dawn of War - Game of the Year Edition Aug 7, 2007 $12.99N/A (N/A/86%)1,000,000 .. 2,000,0000%00:00 (00:00)
207 RiME May 26, 2017 $29.99N/A (N/A/78%)200,000 .. 500,0000%00:00 (00:00)
208 Call of Duty: Modern Warfare 2 Nov 11, 2009 $19.99N/A (N/A/86%)5,000,000 .. 10,000,0000%00:00 (00:00)
209 TAIKU MANSION Feb 13, 2017 $0.99N/A (N/A)100,000 .. 200,0000%00:00 (00:00)
210 Warhammer 40,000: Dawn of War - Dark Crusade Aug 7, 2007 $12.99N/A (N/A/87%)1,000,000 .. 2,000,0000%00:00 (00:00)
211 Kingdom: New Lands Aug 9, 2016 $14.99N/A (N/A)500,000 .. 1,000,0000%00:00 (00:00)
212 Total War: EMPIRE – Definitive Edition Mar 4, 2009 $24.99N/A (N/A/90%)2,000,000 .. 5,000,0004.17%01:45 (01:44)
213 Rusty Lake: Roots Oct 20, 2016 $2.99N/A (N/A/75%)100,000 .. 200,0000%00:00 (00:00)
214 Total War: MEDIEVAL II – Definitive Edition Nov 15, 2006 $24.99N/A (N/A)2,000,000 .. 5,000,0003.51%05:07 (03:24)
215 Noob Squad Oct 5, 2016 $0.99N/A (N/A)20,000 .. 50,0000%00:00 (00:00)
216 Counter-Strike Nov 1, 2000 $9.99N/A (N/A/88%)10,000,000 .. 20,000,0002.77%07:47 (01:57)
217 Quantum Break Sep 29, 2016 $39.99N/A (N/A/66%)1,000,000 .. 2,000,0001.79%00:45 (00:15)
218 Rome: Total War - Collection Sep 22, 2004 $12.99N/A (N/A/92%)1,000,000 .. 2,000,0000%00:00 (00:00)
219 Warhammer 40,000: Sanctus Reach Jan 19, 2017 $29.99N/A (N/A/69%)50,000 .. 100,0000%00:00 (00:00)
220 Counter-Strike: Source Nov 1, 2004 $9.99N/A (N/A/88%)10,000,000 .. 20,000,0001.5%07:23 (10:32)
221 Yomawari: Night Alone Oct 25, 2016 $9.99N/A (N/A)50,000 .. 100,0000%00:00 (00:00)
222 Sid Meier's Railroads! May 4, 2007 $9.99N/A (N/A/77%)500,000 .. 1,000,0000%00:00 (00:00)
223 911 Operator Feb 24, 2017 $14.99N/A (N/A/68%)500,000 .. 1,000,0005.77%00:19 (00:12)
224 Earth 2160 Apr 1, 2006 $4.99N/A (N/A/73%)200,000 .. 500,0000%00:00 (00:00)
225 Mansions of Madness Aug 1, 2016 FreeN/A (N/A)100,000 .. 200,0000%00:00 (00:00)
226 Civilization IV: Beyond the Sword Jul 24, 2007 $9.99N/A (N/A/86%)500,000 .. 1,000,0002.56%179:17 (59:45)
227 Carmageddon: Max Damage Oct 27, 2016 $16.99N/A (N/A)200,000 .. 500,0000%00:00 (00:00)
228 Call of Duty 2 Oct 13, 2006 $19.99N/A (N/A/86%)500,000 .. 1,000,0000%00:00 (00:00)
229 Radical Spectrum: Volume 1 Jul 8, 2016 $0.99N/A (N/A)100,000 .. 200,0000%00:00 (00:00)
230 Supreme Commander: Forged Alliance Sep 28, 2011 $12.99N/A (N/A/81%)500,000 .. 1,000,0003.57%00:28 (00:18)
231 Neon Space 2 Jul 26, 2016 $10.99N/A (N/A)50,000 .. 100,0000%00:00 (00:00)
232 Sid Meier's Civilization IV Oct 25, 2006 $19.99N/A (N/A/94%)1,000,000 .. 2,000,0000%00:00 (00:00)
233 Take Thy Throne Jul 5, 2016 $1.99N/A (N/A)50,000 .. 100,0000%00:00 (00:00)
234 Star Trek Online Feb 2, 2010 FreeN/A (N/A/66%)2,000,000 .. 5,000,0002.94%09:04 (05:31)
235 Merger 3D Sep 29, 2016 $2.99N/A (N/A)200,000 .. 500,0000%00:00 (00:00)
236 Sid Meier's Civilization III Complete Oct 25, 2006 $4.99N/A (N/A/90%)1,000,000 .. 2,000,0001.55%81:43 (54:28)
237 Has-Been Heroes Mar 28, 2017 $19.99N/A (N/A/63%)20,000 .. 50,0000%00:00 (00:00)
238 Prototype Jun 10, 2009 $19.99N/A (N/A/79%)500,000 .. 1,000,0000%00:00 (00:00)
239 Gems of War - Puzzle RPG Nov 20, 2014 FreeN/A (N/A)500,000 .. 1,000,0003.45%00:50 (00:16)
240 Wolfenstein: The Old Blood May 4, 2015 $19.99N/A (N/A/76%)500,000 .. 1,000,0000%00:00 (00:00)
241 Cossacks 3 Sep 20, 2016 $19.99N/A (N/A)1,000,000 .. 2,000,0007.69%01:00 (00:20)
242 Cultures - Northland Mar 26, 2015 $4.99N/A (N/A)100,000 .. 200,0000%00:00 (00:00)
243 Town of Salem Dec 15, 2014 $4.99N/A (N/A)1,000,000 .. 2,000,0005.08%10:04 (08:55)
244 DYNASTY WARRIORS 8 Empires Feb 26, 2015 $49.99N/A (N/A)50,000 .. 100,0000%00:00 (00:00)
245 Runestone Keeper Mar 2, 2015 $9.99N/A (N/A)200,000 .. 500,0000%00:00 (00:00)
246 Tharsis Jan 11, 2016 $14.99N/A (N/A/61%)100,000 .. 200,0007.14%00:26 (00:08)
247 Ember Sep 9, 2016 $9.99N/A (N/A/70%)50,000 .. 100,0000%00:00 (00:00)
248 Total War: ATTILA Feb 17, 2015 $44.99N/A (N/A/80%)1,000,000 .. 2,000,0006.9%10:12 (06:48)
249 Sinless + OST Dec 16, 2015 $4.99N/A (N/A)50,000 .. 100,0000%00:00 (00:00)
250 Worms W.M.D Aug 23, 2016 $29.99N/A (N/A/79%)500,000 .. 1,000,0000%00:00 (00:00)
251 Agent Awesome Feb 17, 2015 $1.99N/A (N/A)200,000 .. 500,0000%00:00 (00:00)
252 Anna's Quest Jul 2, 2015 $19.99N/A (N/A/74%)200,000 .. 500,0000%00:00 (00:00)
253 King's Quest Jul 28, 2015 $24.99N/A (N/A)200,000 .. 500,0000%00:00 (00:00)
254 Devil May Cry 4 Special Edition Jun 23, 2015 $24.99N/A (N/A)500,000 .. 1,000,0004%00:10 (00:03)
255 Hero of the Kingdom II Feb 20, 2015 $0.95N/A (N/A)100,000 .. 200,0000%00:00 (00:00)
256 Brutal Legend Feb 26, 2013 $14.99N/A (N/A/80%)2,000,000 .. 5,000,0000%00:00 (00:00)
257 Shadow Warrior Sep 26, 2013 $39.99N/A (N/A/73%)2,000,000 .. 5,000,0000.49%01:32 (00:30)
258 Full Mojo Rampage May 8, 2014 $12.99N/A (N/A)200,000 .. 500,0000%00:00 (00:00)
259 Worms Clan Wars Aug 15, 2013 $24.99N/A (N/A/73%)500,000 .. 1,000,0002.86%01:10 (00:23)
260 LOST PLANET 3 Aug 26, 2013 $24.99N/A (N/A)200,000 .. 500,0004%00:10 (00:03)
261 Resident Evil Revelations May 20, 2013 $29.99N/A (N/A/77%)500,000 .. 1,000,0000%00:00 (00:00)
262 Age of Wonders III Mar 31, 2014 $29.99N/A (N/A/80%)1,000,000 .. 2,000,0000%00:00 (00:00)
263 Wargame: Airland Battle May 29, 2013 $19.99N/A (N/A/80%)200,000 .. 500,0000%00:00 (00:00)
264 Galactic Civilizations III May 14, 2015 $39.99N/A (N/A/81%)500,000 .. 1,000,0000%00:00 (00:00)
265 Homefront: The Revolution May 17, 2016 $19.99N/A (N/A/54%)500,000 .. 1,000,0000%00:00 (00:00)
266 Full Throttle Remastered Apr 18, 2017 $14.99N/A (N/A/77%)200,000 .. 500,0000%00:00 (00:00)
267 Ace of Spades: Battle Builder N/AN/A (N/A)1,000,000 .. 2,000,0000%00:00 (00:00)
268 Deadfall Adventures Nov 15, 2013 $19.99N/A (N/A/53%)100,000 .. 200,0000%00:00 (00:00)
269 Super House of Dead Ninjas Feb 18, 2013 $6.99N/A (N/A/79%)100,000 .. 200,0000%00:00 (00:00)
270 Company of Heroes 2 Jun 25, 2013 $19.99N/A (N/A/80%)5,000,000 .. 10,000,0002.39%07:57 (06:22)
271 Brothers - A Tale of Two Sons Sep 3, 2013 $14.99N/A (N/A/90%)1,000,000 .. 2,000,0000%00:00 (00:00)
272 Stronghold Crusader 2 Sep 22, 2014 $39.99N/A (N/A/65%)1,000,000 .. 2,000,0002.33%01:25 (00:28)
273 Thimbleweed Park Mar 30, 2017 $19.99N/A (N/A/84%)200,000 .. 500,0000%00:00 (00:00)
274 State of Anarchy: Master of Mayhem Mar 31, 2017 $1.19N/A (N/A)100,000 .. 200,0000%00:00 (00:00)
275 Yonder: The Cloud Catcher Chronicles Jul 18, 2017 $24.99N/A (N/A/70%)100,000 .. 200,0000%00:00 (00:00)
276 Slingshot people Oct 20, 2018 $0.99N/A (N/A)500,000 .. 1,000,0000%00:00 (00:00)
277 Steampunk Syndicate Apr 13, 2017 $1.99N/A (N/A)50,000 .. 100,0000%00:00 (00:00)
278 Cavern Escape Extremely Hard game!!! Feb 20, 2017 $3.99N/A (N/A)100,000 .. 200,0000%00:00 (00:00)
279 Crisis in the Kremlin Mar 20, 2017 $1.99N/A (N/A)100,000 .. 200,0000%00:00 (00:00)
280 The Butterfly Sign Dec 13, 2016 $4.99N/A (N/A)200,000 .. 500,0000%00:00 (00:00)
281 Shadows 2: Perfidia Mar 24, 2017 $9.99N/A (N/A)200,000 .. 500,0000%00:00 (00:00)
282 Realpolitiks Feb 16, 2017 $14.99N/A (N/A/52%)50,000 .. 100,0000%00:00 (00:00)
283 Battle Bruise Apr 22, 2017 $0.99N/A (N/A)20,000 .. 50,0000%00:00 (00:00)
284 ICEY Nov 17, 2016 $10.99N/A (N/A/84%)500,000 .. 1,000,0004.35%02:40 (00:53)
285 Minecraft: Story Mode - Season Two Jul 11, 2017 N/AN/A (N/A)50,000 .. 100,0000%00:00 (00:00)
286 Kingdoms and Castles Jul 20, 2017 $9.99N/A (N/A)1,000,000 .. 2,000,0000%00:00 (00:00)

Geography of active players over time, share:

Access restricted.

This feature is only available to users with special access rights. Sorry.

If you want to proceed, you need to register or log in first and then back Steam Spy on Patreon. Look for Indie or Pro pledge.

Don't forget to use the same email as on Steam Spy!

Tags over time:

Access restricted.

This feature is only available to users with special access rights. Sorry.

If you want to proceed, you need to register or log in first and then back Steam Spy on Patreon. Look for Indie or Pro pledge.

Don't forget to use the same email as on Steam Spy!

Owners of this game also own:

Access restricted.

This feature is only available to users with special access rights. Sorry.

If you want to proceed, you need to register or log in first and then back Steam Spy on Patreon. Look for Indie or Pro pledge.

Don't forget to use the same email as on Steam Spy!

Playtime distribution:

Access restricted.

This feature is only available to users with special access rights. Sorry.

If you want to proceed, you need to register or log in first and then back Steam Spy on Patreon. Look for Indie or Pro pledge.

Don't forget to use the same email as on Steam Spy!

Playtime (2 weeks):

Access restricted.

This feature is only available to users with special access rights. Sorry.

If you want to proceed, you need to register or log in first and then back Steam Spy on Patreon. Look for Indie or Pro pledge.

Don't forget to use the same email as on Steam Spy!

User reviews:

Login required.

Please register or log in to see this information.